Flight Track Log - Related Links

Times and Time Zones

All times are in EDT time to prevent confusion due to time zone crossing. See the N400PU flight status page for this flight to view local times or setup timezone preferences in your user account.

Time Position Orientation Groundspeed Altitude Reporting Facility
EDT Latitude Longitude Course Direction KTS MPH feet Rate Location/Type
Thu 03:32:45 PM 28.4167 -81.3333 180° South 145 167 500  Level Orlando TRACON
Thu 03:33:03 PM 28.4000 -81.3333 180° South 163 188 1,300 2,692 Climbing Orlando TRACON
Thu 03:34:03 PM 28.3500 -81.3500 196° South 210 242 4,000 2,750 Climbing Orlando TRACON
Thu 03:35:03 PM 28.3167 -81.4000 233° Southwest 250 288 6,800 2,650 Climbing Orlando TRACON
Thu 03:36:03 PM 28.3167 -81.4833 270° West 244 281 9,300 2,200 Climbing Orlando TRACON
Thu 03:37:03 PM 28.3833 -81.5167 336° Northwest 327 376 11,200 1,989 Climbing Orlando TRACON
Thu 03:39:10 PM 28.5808 -81.5286 357° North 351 404 15,500 1,957 Climbing Jacksonville Center
Thu 03:40:10 PM 28.6833 -81.5414 354° North 341 392 17,300 1,900 Climbing Jacksonville Center
Thu 03:41:10 PM 28.7794 -81.5567 352° North 341 392 19,300 1,850 Climbing Jacksonville Center
Thu 03:42:10 PM 28.8797 -81.5694 354° North 352 405 21,000 1,450 Climbing Jacksonville Center
Thu 03:43:10 PM 28.9800 -81.5847 352° North 352 405 22,200 1,250 Climbing Jacksonville Center
Thu 03:44:10 PM 29.0825 -81.5953 355° North 364 419 23,500 1,350 Climbing Jacksonville Center
Thu 03:45:10 PM 29.1892 -81.6081 354° North 371 427 24,900 1,250 Climbing Jacksonville Center
Thu 03:46:10 PM 29.2833 -81.6258 351° North 371 427 26,000 550 Climbing Jacksonville Center
Thu 03:47:10 PM 29.3939 -81.6436 352° North 383 441 26,000 650 Level Jacksonville Center
Thu 03:48:10 PM 29.5050 -81.6756 346° North 397 457 27,300 1,200 Climbing Jacksonville Center
Thu 03:49:10 PM 29.6097 -81.7125 343° North 397 457 28,400 950 Climbing Jacksonville Center
Thu 03:50:10 PM 29.7122 -81.7447 345° North 392 451 29,200 750 Climbing Jacksonville Center
Thu 03:51:10 PM 29.8189 -81.7744 346° North 387 445 29,900 700 Climbing Jacksonville Center
Thu 03:52:10 PM 29.9236 -81.8044 346° North 382 440 30,600 700 Climbing Jacksonville Center
Thu 03:53:10 PM 30.0283 -81.8297 348° North 382 440 31,300 650 Climbing Jacksonville Center
Thu 03:54:10 PM 30.1350 -81.8597 346° North 382 440 31,900 600 Climbing Jacksonville Center
Thu 03:55:10 PM 30.2397 -81.8875 347° North 382 440 32,500 550 Climbing Jacksonville Center
Thu 03:56:10 PM 30.3442 -81.9225 344° North 382 440 33,000 600 Climbing Jacksonville Center
Thu 03:57:10 PM 30.4489 -81.9625 342° North 382 440 33,700 600 Climbing Jacksonville Center
Thu 03:58:10 PM 30.5414 -82.0267 329° Northwest 382 440 34,200 600 Climbing Jacksonville Center
Thu 03:59:10 PM 30.6419 -82.1078 325° Northwest 395 455 34,900 400 Climbing Jacksonville Center
Thu 04:00:10 PM 30.7322 -82.1747 327° Northwest 390 449 35,000 50 Climbing Jacksonville Center
Thu 04:01:10 PM 30.8267 -82.2467 327° Northwest 395 455 35,000  Level Jacksonville Center
Thu 04:02:10 PM 30.9231 -82.3211 326° Northwest 406 467 35,000  Level Jacksonville Center
Thu 04:03:10 PM 31.0233 -82.3956 328° Northwest 420 483 35,000  Level Jacksonville Center
Thu 04:04:10 PM 31.1261 -82.4728 327° Northwest 431 496 35,000 50 Level Jacksonville Center
Thu 04:05:10 PM 31.2306 -82.5500 328° Northwest 436 502 35,100 400 Climbing Jacksonville Center
Thu 04:06:10 PM 31.3289 -82.6275 326° Northwest 436 502 35,800 750 Climbing Jacksonville Center
Thu 04:07:10 PM 31.4253 -82.6978 328° Northwest 424 488 36,600 650 Climbing Jacksonville Center
Thu 04:08:10 PM 31.5256 -82.7731 327° Northwest 419 482 37,100 500 Climbing Jacksonville Center
Thu 04:09:10 PM 31.6217 -82.8461 327° Northwest 419 482 37,600 464 Climbing Jacksonville Center
Thu 04:11:24 PM 31.8364 -83.0144 326° Northwest 424 488 38,600 433 Climbing Atlanta Center
Thu 04:12:24 PM 31.9328 -83.0869 327° Northwest 418 481 39,000 200 Climbing Atlanta Center
Thu 04:13:24 PM 32.0317 -83.1667 326° Northwest 423 487 39,000 50 Level Atlanta Center
Thu 04:14:24 PM 32.1344 -83.2442 327° Northwest 429 494 39,100 300 Climbing Atlanta Center
Thu 04:15:24 PM 32.2350 -83.3244 326° Northwest 429 494 39,600 450 Climbing Atlanta Center
Thu 04:16:24 PM 32.3356 -83.4022 327° Northwest 434 499 40,000 200 Climbing Atlanta Center
Thu 04:17:24 PM 32.4403 -83.4850 326° Northwest 445 512 40,000  Level Atlanta Center
Thu 04:18:24 PM 32.5431 -83.5681 326° Northwest 445 512 40,000  Level Atlanta Center
Thu 04:19:24 PM 32.6497 -83.6492 327° Northwest 445 512 40,000  Level Atlanta Center
Thu 04:20:24 PM 32.7544 -83.7325 326° Northwest 450 518 40,000  Level Atlanta Center
Thu 04:21:24 PM 32.8589 -83.8164 326° Northwest 450 518 40,000  Level Atlanta Center
Thu 04:22:24 PM 32.9614 -83.9003 326° Northwest 445 512 40,000  Level Atlanta Center
Thu 04:23:24 PM 33.0617 -83.9819 326° Northwest 445 512 40,000  Level Atlanta Center
Thu 04:24:24 PM 33.1658 -84.0661 326° Northwest 445 512 40,000  Level Atlanta Center
Thu 04:25:24 PM 33.2681 -84.1481 326° Northwest 451 519 40,000  Level Atlanta Center
Thu 04:26:24 PM 33.3683 -84.2278 326° Northwest 443 510 40,000  Level Atlanta Center
Thu 04:27:24 PM 33.4725 -84.3128 326° Northwest 443 510 40,000  Level Atlanta Center
Thu 04:28:24 PM 33.5661 -84.3878 326° Northwest 448 516 40,000  Level Atlanta Center
Thu 04:29:24 PM 33.6933 -84.4558 336° Northwest 454 522 40,000  Level Atlanta Center
Thu 04:30:24 PM 33.8206 -84.4839 350° North 442 509 40,000  Level Atlanta Center
Thu 04:31:24 PM 33.9458 -84.5144 349° North 454 522 40,000  Level Atlanta Center
Thu 04:32:24 PM 34.0625 -84.5428 349° North 462 532 40,000  Level Atlanta Center
Thu 04:33:24 PM 34.2106 -84.5764 349° North 480 552 40,000  Level Atlanta Center
Thu 04:34:24 PM 34.3356 -84.6072 348° North 469 540 40,000 50 Level Atlanta Center
Thu 04:35:24 PM 34.4503 -84.6358 348° North 469 540 40,100 200 Climbing Atlanta Center
Thu 04:36:24 PM 34.5775 -84.6644 350° North 469 540 40,400 400 Climbing Atlanta Center
Thu 04:37:24 PM 34.6983 -84.6981 347° North 457 526 40,900 450 Climbing Atlanta Center
Thu 04:38:24 PM 34.8233 -84.7294 348° North 451 519 41,300 400 Climbing Atlanta Center
Thu 04:39:24 PM 34.9589 -84.7636 348° North 451 519 41,700 450 Climbing Atlanta Center
Thu 04:40:24 PM 35.0797 -84.7950 348° North 446 513 42,200 450 Climbing Atlanta Center
Thu 04:41:24 PM 35.1983 -84.8217 350° North 446 513 42,600 350 Climbing Atlanta Center
Thu 04:42:24 PM 35.3172 -84.8533 348° North 441 507 42,900 200 Climbing Atlanta Center
Thu 04:43:24 PM 35.4358 -84.8825 349° North 441 507 43,000 50 Climbing Atlanta Center
Thu 04:44:24 PM 35.5586 -84.9144 348° North 441 507 43,000  Level Atlanta Center
Thu 04:45:24 PM 35.6775 -84.9436 349° North 436 502 43,000  Level Atlanta Center
Thu 04:46:24 PM 35.8044 -84.9733 349° North 436 502 43,000  Level Atlanta Center
Thu 04:47:24 PM 35.9272 -85.0056 348° North 448 516 43,000  Level Atlanta Center
Thu 04:47:46 PM 35.9706 -85.0178 347° North 459 528 43,000  Level Indianapolis Center
Thu 04:48:48 PM 36.0825 -85.0456 349° North 452 520 43,000  Level Indianapolis Center
Thu 04:49:50 PM 36.2308 -85.0825 349° North 452 520 43,000  Level Indianapolis Center
Thu 04:50:52 PM 36.3542 -85.1144 348° North 453 521 43,000  Level Indianapolis Center
Thu 04:51:54 PM 36.4794 -85.1469 348° North 457 526 43,000  Level Indianapolis Center
Thu 04:52:56 PM 36.6056 -85.1806 348° North 462 532 43,000  Level Indianapolis Center
Thu 04:53:58 PM 36.7328 -85.2122 349° North 466 536 43,000  Level Indianapolis Center
Thu 04:55:00 PM 36.8583 -85.2450 348° North 463 533 43,000  Level Indianapolis Center
Thu 04:56:03 PM 37.0083 -85.2853 348° North 458 527 43,000  Level Indianapolis Center
Thu 04:57:05 PM 37.1303 -85.3169 348° North 452 520 43,000  Level Indianapolis Center
Thu 04:58:07 PM 37.2539 -85.3494 348° North 452 520 43,000  Level Indianapolis Center
Thu 04:59:09 PM 37.3769 -85.3822 348° North 451 519 43,000  Level Indianapolis Center
Thu 05:00:11 PM 37.5031 -85.4158 348° North 457 526 43,000  Level Indianapolis Center
Thu 05:01:13 PM 37.6261 -85.4503 348° North 454 522 43,000  Level Indianapolis Center
Thu 05:02:15 PM 37.7594 -85.5192 338° Northwest 444 511 43,000  Level Indianapolis Center
Thu 05:03:17 PM 37.8775 -85.5783 338° Northwest 442 509 43,000 -48 Level Indianapolis Center
Thu 05:04:19 PM 37.9892 -85.6358 338° Northwest 433 498 42,900 -532 Descending Indianapolis Center
Thu 05:05:21 PM 38.1022 -85.6936 338° Northwest 436 502 41,900 -1,065 Descending Indianapolis Center
Thu 05:06:23 PM 38.2119 -85.7517 337° Northwest 430 495 40,700 -1,210 Descending Indianapolis Center
Thu 05:07:25 PM 38.3258 -85.8103 338° Northwest 440 506 39,400 -1,355 Descending Indianapolis Center
Thu 05:08:27 PM 38.4372 -85.8683 338° Northwest 434 499 37,900 -1,597 Descending Indianapolis Center
Thu 05:09:29 PM 38.5656 -85.9361 338° Northwest 419 482 36,100 -1,500 Descending Indianapolis Center
Thu 05:10:31 PM 38.6633 -85.9875 338° Northwest 387 445 34,800 -1,016 Descending Indianapolis Center
Thu 05:11:33 PM 38.7639 -86.0394 338° Northwest 391 450 34,000 -823 Descending Indianapolis Center
Thu 05:12:35 PM 38.8694 -86.0972 337° Northwest 410 472 33,100 -1,056 Descending Indianapolis Center
Thu 05:13:38 PM 38.9681 -86.1497 338° Northwest 391 450 31,800 -960 Descending Indianapolis Center
Thu 05:14:40 PM 39.0681 -86.1792 347° North 375 432 31,100 -871 Descending Indianapolis Center
Thu 05:15:42 PM 39.1897 -86.2375 340° North 393 452 30,000 -871 Descending Indianapolis Center
Thu 05:16:44 PM 39.2936 -86.2958 337° Northwest 404 465 29,300 -1,790 Descending Indianapolis Center
Thu 05:17:46 PM 39.4014 -86.3561 337° Northwest 418 481 26,300 -2,565 Descending Indianapolis Center
Thu 05:18:48 PM 39.5114 -86.4186 336° Northwest 429 494 24,000 -1,113 Descending Indianapolis Center
Thu 05:19:50 PM 39.6167 -86.4781 336° Northwest 415 478 24,000 -1,210 Level Indianapolis Center
Thu 05:20:52 PM 39.7161 -86.5350 336° Northwest 380 437 21,500 -3,242 Descending Indianapolis Center
Thu 05:21:54 PM 39.8086 -86.5886 336° Northwest 361 415 17,300 -3,871 Descending Indianapolis Center
Thu 05:22:56 PM 39.8967 -86.6394 336° Northwest 348 400 13,500 -3,097 Descending Indianapolis Center
Thu 05:23:58 PM 39.9956 -86.6961 336° Northwest 326 375 10,900 -2,371 Descending Indianapolis Center
Thu 05:25:00 PM 40.0650 -86.7358 336° Northwest 284 327 8,600 -2,323 Descending Indianapolis Center
Thu 05:26:02 PM 40.1325 -86.7753 336° Northwest 270 311 6,100 -2,292 Descending Indianapolis Center
Thu 05:26:29 PM 40.1606 -86.7911 337° Northwest 273 314 5,200 -2,250 Descending Chicago Center
Thu 05:26:50 PM 40.1903 -86.8097 334° Northwest 260 299 4,300 -1,645 Descending Chicago Center
Thu 05:27:31 PM 40.2242 -86.8278 338° Northwest 264 304 3,500 -1,279 Descending Chicago Center
Thu 05:27:51 PM 40.2475 -86.8436 333° Northwest 244 281 3,000 -484 Descending Chicago Center
Thu 05:28:33 PM 40.2800 -86.8600 339° North 240 276 3,000 -200 Level Chicago Center
Thu 05:28:51 PM 40.3025 -86.8744 334° Northwest 215 247 2,800 -484 Descending Chicago Center
Thu 05:29:35 PM 40.3392 -86.8922 340° North 210 242 2,500 -492 Descending Chicago Center
Thu 05:29:52 PM 40.3494 -86.9019 324° Northwest 193 222 2,300 -194 Descending Chicago Center
Thu 05:30:37 PM 40.3878 -86.9206 340° North 207 238 2,300 -197 Level Chicago Center
Thu 05:30:53 PM 40.3833 -86.9453 257° West 182 209 2,100 -316 Descending Chicago Center
Thu 05:31:53 PM 40.3872 -87.0056 275° West 177 204 1,900 -298 Descending Chicago Center
Thu 05:32:54 PM 40.4189 -86.9967 12° North 144 166 1,500 -393 Descending Chicago Center
Thu 05:34:00 PM 40.4000 -86.9333 333° Northwest  Level FlightAware Approximate
Thu 05:41:00 PM 40.4123 -86.9369 333° Northwest  Level Estimated

Login

Don't have an account? Register now (free) for customized features, flight alerts, and more!